sensor_id;sensor_type;location;lat;lon;timestamp;temperature;humidity
33841;DHT22;20142;28.494;-16.312;2022-12-20T00:03:07;15.90;73.20
33841;DHT22;20142;28.494;-16.312;2022-12-20T00:08:09;15.80;73.60
33841;DHT22;20142;28.494;-16.312;2022-12-20T00:13:12;16.00;73.50
33841;DHT22;20142;28.494;-16.312;2022-12-20T00:18:14;15.80;73.20
33841;DHT22;20142;28.494;-16.312;2022-12-20T00:23:15;15.70;73.40
33841;DHT22;20142;28.494;-16.312;2022-12-20T00:28:17;15.60;74.20
33841;DHT22;20142;28.494;-16.312;2022-12-20T00:33:19;15.60;74.00
33841;DHT22;20142;28.494;-16.312;2022-12-20T00:38:21;15.60;73.90
33841;DHT22;20142;28.494;-16.312;2022-12-20T00:43:23;15.50;74.20
33841;DHT22;20142;28.494;-16.312;2022-12-20T00:48:26;15.60;74.00
33841;DHT22;20142;28.494;-16.312;2022-12-20T00:53:28;15.60;74.00
33841;DHT22;20142;28.494;-16.312;2022-12-20T00:58:33;15.60;74.00
33841;DHT22;20142;28.494;-16.312;2022-12-20T01:03:36;15.50;74.00
33841;DHT22;20142;28.494;-16.312;2022-12-20T01:08:37;15.40;74.40
33841;DHT22;20142;28.494;-16.312;2022-12-20T01:13:42;15.20;74.70
33841;DHT22;20142;28.494;-16.312;2022-12-20T01:18:45;15.20;74.80
33841;DHT22;20142;28.494;-16.312;2022-12-20T01:23:47;15.10;75.00
33841;DHT22;20142;28.494;-16.312;2022-12-20T01:28:53;15.10;75.00
33841;DHT22;20142;28.494;-16.312;2022-12-20T01:33:56;15.00;75.20
33841;DHT22;20142;28.494;-16.312;2022-12-20T01:39:01;15.00;75.10
33841;DHT22;20142;28.494;-16.312;2022-12-20T01:49:31;14.90;74.80
33841;DHT22;20142;28.494;-16.312;2022-12-20T01:59:53;14.70;75.30
33841;DHT22;20142;28.494;-16.312;2022-12-20T02:04:56;14.80;74.80
33841;DHT22;20142;28.494;-16.312;2022-12-20T02:09:58;14.70;75.30
33841;DHT22;20142;28.494;-16.312;2022-12-20T02:15:34;14.90;75.00
33841;DHT22;20142;28.494;-16.312;2022-12-20T02:26:49;15.30;75.40
33841;DHT22;20142;28.494;-16.312;2022-12-20T02:37:57;15.50;75.70
33841;DHT22;20142;28.494;-16.312;2022-12-20T02:43:03;15.50;76.10
33841;DHT22;20142;28.494;-16.312;2022-12-20T02:48:29;15.40;76.80
33841;DHT22;20142;28.494;-16.312;2022-12-20T02:53:33;15.10;77.00
33841;DHT22;20142;28.494;-16.312;2022-12-20T02:58:58;15.10;77.60
33841;DHT22;20142;28.494;-16.312;2022-12-20T03:04:24;15.00;77.70
33841;DHT22;20142;28.494;-16.312;2022-12-20T03:09:30;14.90;77.90
33841;DHT22;20142;28.494;-16.312;2022-12-20T03:14:34;15.00;78.00
33841;DHT22;20142;28.494;-16.312;2022-12-20T03:19:36;14.90;77.90
33841;DHT22;20142;28.494;-16.312;2022-12-20T03:24:37;14.70;77.80
33841;DHT22;20142;28.494;-16.312;2022-12-20T03:29:39;14.40;78.20
33841;DHT22;20142;28.494;-16.312;2022-12-20T03:34:41;14.40;78.70
33841;DHT22;20142;28.494;-16.312;2022-12-20T03:39:42;14.50;78.80
33841;DHT22;20142;28.494;-16.312;2022-12-20T03:44:44;14.50;78.90
33841;DHT22;20142;28.494;-16.312;2022-12-20T03:49:46;14.40;78.70
33841;DHT22;20142;28.494;-16.312;2022-12-20T03:54:47;14.30;78.80
33841;DHT22;20142;28.494;-16.312;2022-12-20T03:59:49;14.20;78.90
33841;DHT22;20142;28.494;-16.312;2022-12-20T04:04:51;14.30;79.40
33841;DHT22;20142;28.494;-16.312;2022-12-20T04:09:52;14.30;78.80
33841;DHT22;20142;28.494;-16.312;2022-12-20T04:14:54;14.10;79.00
33841;DHT22;20142;28.494;-16.312;2022-12-20T04:19:56;14.10;79.50
33841;DHT22;20142;28.494;-16.312;2022-12-20T04:24:57;14.20;79.20
33841;DHT22;20142;28.494;-16.312;2022-12-20T04:29:59;14.30;78.90
33841;DHT22;20142;28.494;-16.312;2022-12-20T04:35:01;13.90;78.90
33841;DHT22;20142;28.494;-16.312;2022-12-20T04:40:04;13.90;79.40
33841;DHT22;20142;28.494;-16.312;2022-12-20T04:45:07;14.10;79.20
33841;DHT22;20142;28.494;-16.312;2022-12-20T04:50:09;14.10;79.40
33841;DHT22;20142;28.494;-16.312;2022-12-20T04:55:10;14.10;79.10
33841;DHT22;20142;28.494;-16.312;2022-12-20T05:00:12;14.00;79.40
33841;DHT22;20142;28.494;-16.312;2022-12-20T05:05:15;14.20;79.30
33841;DHT22;20142;28.494;-16.312;2022-12-20T05:10:17;14.00;78.80
33841;DHT22;20142;28.494;-16.312;2022-12-20T05:15:19;14.00;79.10
33841;DHT22;20142;28.494;-16.312;2022-12-20T05:20:21;14.00;79.30
33841;DHT22;20142;28.494;-16.312;2022-12-20T05:25:23;14.10;79.00
33841;DHT22;20142;28.494;-16.312;2022-12-20T05:30:43;13.60;78.60
33841;DHT22;20142;28.494;-16.312;2022-12-20T05:35:45;13.50;79.40
33841;DHT22;20142;28.494;-16.312;2022-12-20T05:40:47;13.70;79.60
33841;DHT22;20142;28.494;-16.312;2022-12-20T05:45:51;13.60;79.10
33841;DHT22;20142;28.494;-16.312;2022-12-20T05:50:53;13.60;79.20
33841;DHT22;20142;28.494;-16.312;2022-12-20T05:55:55;13.70;79.30
33841;DHT22;20142;28.494;-16.312;2022-12-20T06:01:00;13.60;79.00
33841;DHT22;20142;28.494;-16.312;2022-12-20T06:06:03;13.70;79.10
33841;DHT22;20142;28.494;-16.312;2022-12-20T06:11:05;13.70;79.00
33841;DHT22;20142;28.494;-16.312;2022-12-20T06:16:07;13.60;78.80
33841;DHT22;20142;28.494;-16.312;2022-12-20T06:21:08;13.50;78.90
33841;DHT22;20142;28.494;-16.312;2022-12-20T06:26:10;13.40;79.30
33841;DHT22;20142;28.494;-16.312;2022-12-20T06:31:12;13.40;79.20
33841;DHT22;20142;28.494;-16.312;2022-12-20T06:36:13;13.50;79.50
33841;DHT22;20142;28.494;-16.312;2022-12-20T06:41:15;13.70;79.50
33841;DHT22;20142;28.494;-16.312;2022-12-20T06:46:17;13.90;79.00
33841;DHT22;20142;28.494;-16.312;2022-12-20T06:51:19;14.20;79.20
33841;DHT22;20142;28.494;-16.312;2022-12-20T06:56:20;14.30;78.90
33841;DHT22;20142;28.494;-16.312;2022-12-20T07:01:22;14.40;78.40
33841;DHT22;20142;28.494;-16.312;2022-12-20T07:06:24;13.90;77.80
33841;DHT22;20142;28.494;-16.312;2022-12-20T07:11:27;13.70;78.80
33841;DHT22;20142;28.494;-16.312;2022-12-20T07:16:29;13.60;78.90
33841;DHT22;20142;28.494;-16.312;2022-12-20T07:21:32;13.80;79.10
33841;DHT22;20142;28.494;-16.312;2022-12-20T07:26:34;14.00;78.80
33841;DHT22;20142;28.494;-16.312;2022-12-20T07:31:36;14.00;78.70
33841;DHT22;20142;28.494;-16.312;2022-12-20T07:36:37;14.10;78.70
33841;DHT22;20142;28.494;-16.312;2022-12-20T07:41:40;13.60;77.80
33841;DHT22;20142;28.494;-16.312;2022-12-20T07:46:41;13.40;78.70
33841;DHT22;20142;28.494;-16.312;2022-12-20T07:51:50;13.50;79.00
33841;DHT22;20142;28.494;-16.312;2022-12-20T07:56:59;13.60;79.00
33841;DHT22;20142;28.494;-16.312;2022-12-20T08:02:05;13.70;78.90
33841;DHT22;20142;28.494;-16.312;2022-12-20T08:07:08;13.60;78.70
33841;DHT22;20142;28.494;-16.312;2022-12-20T08:12:13;13.60;78.70
33841;DHT22;20142;28.494;-16.312;2022-12-20T08:17:17;13.70;78.80
33841;DHT22;20142;28.494;-16.312;2022-12-20T08:22:19;13.60;78.90
33841;DHT22;20142;28.494;-16.312;2022-12-20T08:27:20;13.50;78.70
33841;DHT22;20142;28.494;-16.312;2022-12-20T08:32:22;13.50;78.90
33841;DHT22;20142;28.494;-16.312;2022-12-20T08:37:24;13.60;79.10
33841;DHT22;20142;28.494;-16.312;2022-12-20T08:42:26;13.70;79.00
33841;DHT22;20142;28.494;-16.312;2022-12-20T08:47:29;13.70;79.00
33841;DHT22;20142;28.494;-16.312;2022-12-20T08:52:31;13.80;78.90
33841;DHT22;20142;28.494;-16.312;2022-12-20T08:57:32;13.90;79.20
33841;DHT22;20142;28.494;-16.312;2022-12-20T09:02:35;14.00;78.90
33841;DHT22;20142;28.494;-16.312;2022-12-20T09:07:38;14.20;79.00
33841;DHT22;20142;28.494;-16.312;2022-12-20T09:12:39;14.50;78.80
33841;DHT22;20142;28.494;-16.312;2022-12-20T09:17:41;14.60;79.00
33841;DHT22;20142;28.494;-16.312;2022-12-20T09:22:43;14.90;78.80
33841;DHT22;20142;28.494;-16.312;2022-12-20T09:27:44;15.10;78.80
33841;DHT22;20142;28.494;-16.312;2022-12-20T09:32:46;15.40;78.60
33841;DHT22;20142;28.494;-16.312;2022-12-20T09:37:48;15.70;77.90
33841;DHT22;20142;28.494;-16.312;2022-12-20T09:42:50;16.00;77.80
33841;DHT22;20142;28.494;-16.312;2022-12-20T09:47:52;16.30;77.80
33841;DHT22;20142;28.494;-16.312;2022-12-20T10:03:56;17.70;76.60
33841;DHT22;20142;28.494;-16.312;2022-12-20T10:09:04;18.20;75.60
33841;DHT22;20142;28.494;-16.312;2022-12-20T10:14:51;18.50;74.90
33841;DHT22;20142;28.494;-16.312;2022-12-20T10:20:12;18.70;74.40
33841;DHT22;20142;28.494;-16.312;2022-12-20T10:25:31;18.70;74.30
33841;DHT22;20142;28.494;-16.312;2022-12-20T10:30:33;18.90;74.40
33841;DHT22;20142;28.494;-16.312;2022-12-20T10:35:39;19.00;74.00
33841;DHT22;20142;28.494;-16.312;2022-12-20T10:40:44;19.20;74.00
33841;DHT22;20142;28.494;-16.312;2022-12-20T10:46:04;19.40;73.70
33841;DHT22;20142;28.494;-16.312;2022-12-20T11:01:27;19.80;73.30
33841;DHT22;20142;28.494;-16.312;2022-12-20T11:12:03;20.10;72.80
33841;DHT22;20142;28.494;-16.312;2022-12-20T11:17:31;20.20;72.20
33841;DHT22;20142;28.494;-16.312;2022-12-20T11:23:36;20.40;72.30
33841;DHT22;20142;28.494;-16.312;2022-12-20T11:29:35;20.60;71.90
33841;DHT22;20142;28.494;-16.312;2022-12-20T11:39:46;20.90;70.50
33841;DHT22;20142;28.494;-16.312;2022-12-20T11:45:14;21.00;70.20
33841;DHT22;20142;28.494;-16.312;2022-12-20T11:55:44;21.30;68.90
33841;DHT22;20142;28.494;-16.312;2022-12-20T12:00:55;21.40;68.20
33841;DHT22;20142;28.494;-16.312;2022-12-20T12:06:21;21.50;67.30
33841;DHT22;20142;28.494;-16.312;2022-12-20T12:11:28;21.70;66.90
33841;DHT22;20142;28.494;-16.312;2022-12-20T12:16:39;21.80;66.40
33841;DHT22;20142;28.494;-16.312;2022-12-20T12:21:46;21.90;66.00
33841;DHT22;20142;28.494;-16.312;2022-12-20T12:26:58;22.00;65.10
33841;DHT22;20142;28.494;-16.312;2022-12-20T12:32:24;22.10;64.10
33841;DHT22;20142;28.494;-16.312;2022-12-20T12:43:22;22.30;61.90
33841;DHT22;20142;28.494;-16.312;2022-12-20T12:49:00;22.40;61.20
33841;DHT22;20142;28.494;-16.312;2022-12-20T13:04:53;22.70;58.30
33841;DHT22;20142;28.494;-16.312;2022-12-20T13:20:31;22.70;56.80
33841;DHT22;20142;28.494;-16.312;2022-12-20T13:25:36;22.60;56.10
33841;DHT22;20142;28.494;-16.312;2022-12-20T13:30:46;22.70;55.70
33841;DHT22;20142;28.494;-16.312;2022-12-20T13:36:11;22.70;55.00
33841;DHT22;20142;28.494;-16.312;2022-12-20T13:41:44;22.70;54.90
33841;DHT22;20142;28.494;-16.312;2022-12-20T13:52:31;22.70;55.00
33841;DHT22;20142;28.494;-16.312;2022-12-20T13:57:42;22.80;54.30
33841;DHT22;20142;28.494;-16.312;2022-12-20T14:02:45;22.90;54.50
33841;DHT22;20142;28.494;-16.312;2022-12-20T14:07:53;22.80;54.30
33841;DHT22;20142;28.494;-16.312;2022-12-20T14:13:26;22.90;54.20
33841;DHT22;20142;28.494;-16.312;2022-12-20T14:18:28;22.90;54.20
33841;DHT22;20142;28.494;-16.312;2022-12-20T14:23:58;23.00;54.40
33841;DHT22;20142;28.494;-16.312;2022-12-20T14:29:01;23.00;54.00
33841;DHT22;20142;28.494;-16.312;2022-12-20T14:39:31;23.10;53.30
33841;DHT22;20142;28.494;-16.312;2022-12-20T14:44:34;23.20;53.20
33841;DHT22;20142;28.494;-16.312;2022-12-20T14:49:37;23.20;52.70
33841;DHT22;20142;28.494;-16.312;2022-12-20T14:55:28;23.20;51.80
33841;DHT22;20142;28.494;-16.312;2022-12-20T15:10:36;23.70;50.40
33841;DHT22;20142;28.494;-16.312;2022-12-20T15:15:37;24.10;51.60
33841;DHT22;20142;28.494;-16.312;2022-12-20T15:20:41;24.90;53.70
33841;DHT22;20142;28.494;-16.312;2022-12-20T15:25:44;27.90;52.60
33841;DHT22;20142;28.494;-16.312;2022-12-20T15:30:48;34.20;44.50
33841;DHT22;20142;28.494;-16.312;2022-12-20T15:35:51;37.50;41.20
33841;DHT22;20142;28.494;-16.312;2022-12-20T15:40:59;39.40;39.90
33841;DHT22;20142;28.494;-16.312;2022-12-20T15:46:04;41.20;38.30
33841;DHT22;20142;28.494;-16.312;2022-12-20T15:51:17;43.00;36.70
33841;DHT22;20142;28.494;-16.312;2022-12-20T15:56:31;43.80;35.80
33841;DHT22;20142;28.494;-16.312;2022-12-20T16:01:36;44.60;35.10
33841;DHT22;20142;28.494;-16.312;2022-12-20T16:06:39;45.40;33.90
33841;DHT22;20142;28.494;-16.312;2022-12-20T16:11:41;44.50;34.10
33841;DHT22;20142;28.494;-16.312;2022-12-20T16:16:43;44.70;33.80
33841;DHT22;20142;28.494;-16.312;2022-12-20T16:21:50;45.50;32.60
33841;DHT22;20142;28.494;-16.312;2022-12-20T16:26:52;44.80;32.40
33841;DHT22;20142;28.494;-16.312;2022-12-20T16:31:54;44.10;32.60
33841;DHT22;20142;28.494;-16.312;2022-12-20T16:36:55;44.00;32.60
33841;DHT22;20142;28.494;-16.312;2022-12-20T16:41:57;44.30;32.70
33841;DHT22;20142;28.494;-16.312;2022-12-20T16:46:59;44.00;32.70
33841;DHT22;20142;28.494;-16.312;2022-12-20T16:52:00;43.30;32.40
33841;DHT22;20142;28.494;-16.312;2022-12-20T16:57:03;41.90;32.30
33841;DHT22;20142;28.494;-16.312;2022-12-20T17:02:28;40.40;33.00
33841;DHT22;20142;28.494;-16.312;2022-12-20T17:07:32;39.40;33.20
33841;DHT22;20142;28.494;-16.312;2022-12-20T17:12:34;38.60;33.60
33841;DHT22;20142;28.494;-16.312;2022-12-20T17:17:36;35.40;34.40
33841;DHT22;20142;28.494;-16.312;2022-12-20T17:22:37;33.60;36.00
33841;DHT22;20142;28.494;-16.312;2022-12-20T17:27:39;31.40;37.90
33841;DHT22;20142;28.494;-16.312;2022-12-20T17:32:42;28.90;39.30
33841;DHT22;20142;28.494;-16.312;2022-12-20T17:37:46;27.00;40.70
33841;DHT22;20142;28.494;-16.312;2022-12-20T17:42:48;25.90;42.50
33841;DHT22;20142;28.494;-16.312;2022-12-20T17:47:50;25.20;42.70
33841;DHT22;20142;28.494;-16.312;2022-12-20T17:52:52;24.70;43.80
33841;DHT22;20142;28.494;-16.312;2022-12-20T17:57:55;24.10;44.70
33841;DHT22;20142;28.494;-16.312;2022-12-20T18:02:57;23.80;45.30
33841;DHT22;20142;28.494;-16.312;2022-12-20T18:07:59;23.50;47.20
33841;DHT22;20142;28.494;-16.312;2022-12-20T18:13:00;23.20;47.40
33841;DHT22;20142;28.494;-16.312;2022-12-20T18:18:02;22.70;48.00
33841;DHT22;20142;28.494;-16.312;2022-12-20T18:23:04;22.40;49.10
33841;DHT22;20142;28.494;-16.312;2022-12-20T18:28:05;21.90;49.80
33841;DHT22;20142;28.494;-16.312;2022-12-20T18:33:08;21.60;50.30
33841;DHT22;20142;28.494;-16.312;2022-12-20T18:38:09;21.30;51.00
33841;DHT22;20142;28.494;-16.312;2022-12-20T18:43:11;20.90;51.80
33841;DHT22;20142;28.494;-16.312;2022-12-20T18:48:13;20.70;53.50
33841;DHT22;20142;28.494;-16.312;2022-12-20T18:53:15;20.70;53.90
33841;DHT22;20142;28.494;-16.312;2022-12-20T18:58:16;20.30;54.30
33841;DHT22;20142;28.494;-16.312;2022-12-20T19:03:18;20.20;55.10
33841;DHT22;20142;28.494;-16.312;2022-12-20T19:08:21;20.10;55.80
33841;DHT22;20142;28.494;-16.312;2022-12-20T19:13:23;20.10;55.70
33841;DHT22;20142;28.494;-16.312;2022-12-20T19:18:25;19.90;56.20
33841;DHT22;20142;28.494;-16.312;2022-12-20T19:23:26;19.60;56.70
33841;DHT22;20142;28.494;-16.312;2022-12-20T19:28:29;19.50;57.60
33841;DHT22;20142;28.494;-16.312;2022-12-20T19:33:31;19.50;57.60
33841;DHT22;20142;28.494;-16.312;2022-12-20T19:38:33;19.10;57.80
33841;DHT22;20142;28.494;-16.312;2022-12-20T19:43:34;18.60;58.20
33841;DHT22;20142;28.494;-16.312;2022-12-20T19:48:36;18.30;59.40
33841;DHT22;20142;28.494;-16.312;2022-12-20T19:53:39;18.30;59.60
33841;DHT22;20142;28.494;-16.312;2022-12-20T19:58:43;18.50;59.60
33841;DHT22;20142;28.494;-16.312;2022-12-20T20:03:45;18.60;59.70
33841;DHT22;20142;28.494;-16.312;2022-12-20T20:08:47;18.30;59.60
33841;DHT22;20142;28.494;-16.312;2022-12-20T20:13:49;18.10;60.10
33841;DHT22;20142;28.494;-16.312;2022-12-20T20:18:52;18.00;61.00
33841;DHT22;20142;28.494;-16.312;2022-12-20T20:23:54;18.00;61.20
33841;DHT22;20142;28.494;-16.312;2022-12-20T20:28:56;17.70;61.50
33841;DHT22;20142;28.494;-16.312;2022-12-20T20:34:00;17.70;61.70
33841;DHT22;20142;28.494;-16.312;2022-12-20T20:39:02;17.80;61.80
33841;DHT22;20142;28.494;-16.312;2022-12-20T20:44:04;17.60;62.10
33841;DHT22;20142;28.494;-16.312;2022-12-20T20:49:05;17.60;62.10
33841;DHT22;20142;28.494;-16.312;2022-12-20T20:54:07;17.60;62.50
33841;DHT22;20142;28.494;-16.312;2022-12-20T20:59:09;17.60;62.40
33841;DHT22;20142;28.494;-16.312;2022-12-20T21:04:10;17.50;62.50
33841;DHT22;20142;28.494;-16.312;2022-12-20T21:09:12;17.50;62.70
33841;DHT22;20142;28.494;-16.312;2022-12-20T21:14:13;17.30;62.70
33841;DHT22;20142;28.494;-16.312;2022-12-20T21:19:16;17.20;62.80
33841;DHT22;20142;28.494;-16.312;2022-12-20T21:24:18;17.00;63.30
33841;DHT22;20142;28.494;-16.312;2022-12-20T21:29:20;16.80;63.70
33841;DHT22;20142;28.494;-16.312;2022-12-20T21:34:21;16.70;64.00
33841;DHT22;20142;28.494;-16.312;2022-12-20T21:39:23;16.70;64.00
33841;DHT22;20142;28.494;-16.312;2022-12-20T21:44:25;16.60;64.30
33841;DHT22;20142;28.494;-16.312;2022-12-20T21:49:26;16.60;64.10
33841;DHT22;20142;28.494;-16.312;2022-12-20T21:54:28;16.50;64.20
33841;DHT22;20142;28.494;-16.312;2022-12-20T21:59:30;16.50;64.60
33841;DHT22;20142;28.494;-16.312;2022-12-20T22:04:32;16.60;64.80
33841;DHT22;20142;28.494;-16.312;2022-12-20T22:09:34;16.50;64.00
33841;DHT22;20142;28.494;-16.312;2022-12-20T22:14:36;16.20;64.80
33841;DHT22;20142;28.494;-16.312;2022-12-20T22:19:37;16.20;65.30
33841;DHT22;20142;28.494;-16.312;2022-12-20T22:24:39;16.10;65.30
33841;DHT22;20142;28.494;-16.312;2022-12-20T22:29:41;16.10;65.40
33841;DHT22;20142;28.494;-16.312;2022-12-20T22:34:42;16.00;65.30
33841;DHT22;20142;28.494;-16.312;2022-12-20T22:39:44;15.90;65.30
33841;DHT22;20142;28.494;-16.312;2022-12-20T22:44:45;15.90;65.40
33841;DHT22;20142;28.494;-16.312;2022-12-20T22:49:47;15.80;65.90
33841;DHT22;20142;28.494;-16.312;2022-12-20T22:54:49;15.60;65.80
33841;DHT22;20142;28.494;-16.312;2022-12-20T22:59:50;15.70;66.10
33841;DHT22;20142;28.494;-16.312;2022-12-20T23:04:52;15.60;66.10
33841;DHT22;20142;28.494;-16.312;2022-12-20T23:09:54;15.50;66.10
33841;DHT22;20142;28.494;-16.312;2022-12-20T23:14:56;15.40;67.00
33841;DHT22;20142;28.494;-16.312;2022-12-20T23:20:15;15.40;67.00
33841;DHT22;20142;28.494;-16.312;2022-12-20T23:25:36;15.40;66.80
33841;DHT22;20142;28.494;-16.312;2022-12-20T23:30:37;15.20;66.60
33841;DHT22;20142;28.494;-16.312;2022-12-20T23:35:39;15.10;67.20
33841;DHT22;20142;28.494;-16.312;2022-12-20T23:40:40;15.10;67.10
33841;DHT22;20142;28.494;-16.312;2022-12-20T23:45:43;15.00;67.20
33841;DHT22;20142;28.494;-16.312;2022-12-20T23:50:53;15.00;67.00
33841;DHT22;20142;28.494;-16.312;2022-12-20T23:56:03;14.90;67.30
